Time;durP1;ratioP1;P1;durP2;ratioP2;P2;SDS_P1;SDS_P2;PMS_P1;PMS_P2;Temp;Humidity;BMP_temperature;BMP_pressure;BME280_temperature;BME280_humidity;BME280_pressure;Samples;Min_cycle;Max_cycle;Signal;HPM_P1;HPM_P2
2022/02/12 00:00:24;;;;;;;52.05;27.92;;;;;;;-0.18;100.00;93740.06;5050210;28;20049;-80
2022/02/12 00:02:52;;;;;;;56.88;31.27;;;;;;;0.05;100.00;93760.00;5050418;28;20041;-81
2022/02/12 00:05:21;;;;;;;57.88;32.33;;;;;;;-0.05;100.00;93733.97;5049995;28;20079;-81
2022/02/12 00:07:47;;;;;;;71.05;42.78;;;;;;;0.13;100.00;93760.19;5065347;28;20049;-81
2022/02/12 00:10:14;;;;;;;53.42;32.25;;;;;;;0.21;100.00;93772.16;5065020;28;20043;-81
2022/02/12 00:12:41;;;;;;;55.90;30.60;;;;;;;0.10;100.00;93750.31;5058822;28;20048;-81
2022/02/12 00:15:09;;;;;;;38.05;22.65;;;;;;;0.12;100.00;93760.31;5052842;28;20053;-81
2022/02/12 00:17:36;;;;;;;36.78;22.98;;;;;;;-0.16;100.00;93750.03;5059259;28;20090;-81
2022/02/12 00:20:04;;;;;;;47.58;25.90;;;;;;;0.07;100.00;93770.81;5069560;28;20101;-81
2022/02/12 00:22:33;;;;;;;38.75;23.90;;;;;;;0.13;100.00;93777.03;5069617;28;20055;-81
2022/02/12 00:25:00;;;;;;;37.63;23.48;;;;;;;0.19;100.00;93775.75;5070429;28;20052;-81
2022/02/12 00:27:27;;;;;;;35.85;21.30;;;;;;;0.15;100.00;93777.72;5070534;28;20048;-81
2022/02/12 00:29:54;;;;;;;35.25;20.67;;;;;;;0.26;100.00;93786.91;5069830;28;20041;-81
2022/02/12 00:32:21;;;;;;;35.22;19.70;;;;;;;0.25;100.00;93793.69;5069716;28;20045;-81
2022/02/12 00:34:48;;;;;;;36.47;20.52;;;;;;;0.12;100.00;93778.78;5069755;28;20388;-81
2022/02/12 00:37:14;;;;;;;32.15;19.80;;;;;;;0.01;100.00;93766.28;5069830;28;20087;-81
2022/02/12 00:39:43;;;;;;;35.47;20.17;;;;;;;0.04;100.00;93793.00;5069199;28;20049;-81
2022/02/12 00:42:09;;;;;;;36.88;20.83;;;;;;;0.04;100.00;93800.59;5069656;28;20459;-80
2022/02/12 00:44:36;;;;;;;32.38;18.80;;;;;;;-0.05;100.00;93795.38;5069770;28;21370;-80
2022/02/12 00:47:04;;;;;;;36.80;20.55;;;;;;;0.02;100.00;93802.41;5069274;28;20373;-80
2022/02/12 00:49:31;;;;;;;28.08;18.38;;;;;;;0.01;100.00;93806.69;5069319;28;20503;-80
2022/02/12 00:51:58;;;;;;;25.70;14.90;;;;;;;-0.14;100.00;93784.31;5069890;28;20044;-80
2022/02/12 00:54:24;;;;;;;22.70;13.13;;;;;;;-0.03;100.00;93806.16;5069767;28;20056;-80
2022/02/12 00:56:54;;;;;;;25.02;13.43;;;;;;;-0.03;100.00;93810.41;5069240;28;20040;-80
2022/02/12 00:59:20;;;;;;;25.90;14.52;;;;;;;-0.01;100.00;93811.88;5069479;28;20059;-79
2022/02/12 01:01:47;;;;;;;27.45;11.57;;;;;;;-0.01;100.00;93819.44;5069467;28;20167;-79
2022/02/12 01:04:14;;;;;;;20.58;11.20;;;;;;;-0.12;100.00;93803.59;5069571;28;20392;-80
2022/02/12 01:06:41;;;;;;;18.83;11.00;;;;;;;0.00;100.00;93827.84;5069341;28;20094;-79
2022/02/12 01:09:08;;;;;;;20.90;12.38;;;;;;;0.03;100.00;93821.69;5069117;28;20040;-79
2022/02/12 01:11:34;;;;;;;21.58;13.02;;;;;;;0.02;100.00;93815.88;5069264;28;20040;-79
2022/02/12 01:14:03;;;;;;;25.02;13.95;;;;;;;-0.01;100.00;93813.59;5069613;28;20052;-79
2022/02/12 01:16:30;;;;;;;25.77;13.63;;;;;;;0.04;100.00;93830.91;5069278;28;20044;-79
2022/02/12 01:18:57;;;;;;;24.10;11.68;;;;;;;0.02;100.00;93822.63;5069334;28;20086;-79
2022/02/12 01:21:24;;;;;;;25.30;12.35;;;;;;;-0.05;100.00;93822.38;5069285;28;20052;-79
2022/02/12 01:23:51;;;;;;;19.80;10.88;;;;;;;-0.06;100.00;93823.28;5069165;28;20070;-80
2022/02/12 01:26:18;;;;;;;25.85;13.52;;;;;;;-0.05;100.00;93827.41;5069213;28;20049;-79
2022/02/12 01:28:45;;;;;;;28.08;14.00;;;;;;;-0.06;100.00;93828.31;5069004;28;20044;-79
2022/02/12 01:31:14;;;;;;;32.35;17.05;;;;;;;-0.03;100.00;93830.59;5069048;28;20045;-79
2022/02/12 01:33:41;;;;;;;32.35;16.02;;;;;;;-0.24;100.00;93792.81;5069377;28;20424;-79
2022/02/12 01:36:07;;;;;;;35.60;17.48;;;;;;;-0.10;100.00;93816.91;5069355;28;20090;-79
2022/02/12 01:38:34;;;;;;;35.22;16.40;;;;;;;-0.11;100.00;93831.25;5069915;28;20090;-79
2022/02/12 01:41:01;;;;;;;29.98;16.23;;;;;;;-0.10;100.00;93832.06;5069307;28;20688;-79
2022/02/12 01:43:28;;;;;;;28.55;14.30;;;;;;;-0.09;100.00;93836.19;5069259;28;20102;-79
2022/02/12 01:45:55;;;;;;;29.33;13.50;;;;;;;-0.14;100.00;93837.34;5069304;28;20063;-79
2022/02/12 01:48:23;;;;;;;23.52;11.82;;;;;;;-0.22;100.00;93833.88;5068775;28;20049;-79
2022/02/12 01:50:52;;;;;;;21.40;11.23;;;;;;;-0.23;100.00;93843.16;5068910;28;20049;-79
2022/02/12 01:53:21;;;;;;;20.35;10.77;;;;;;;-0.29;100.00;93841.97;5068922;28;20074;-79
2022/02/12 01:55:47;;;;;;;22.05;11.27;;;;;;;-0.35;100.00;93841.66;5069309;28;20094;-79
2022/02/12 01:58:15;;;;;;;24.00;11.45;;;;;;;-0.37;100.00;93841.00;5070248;28;20047;-79
2022/02/12 02:00:42;;;;;;;25.08;12.25;;;;;;;-0.42;100.00;93856.50;5072654;28;20036;-79
2022/02/12 02:03:09;;;;;;;28.23;11.45;;;;;;;-0.43;100.00;93854.91;5072206;28;20515;-79
2022/02/12 02:05:37;;;;;;;21.90;12.23;;;;;;;-0.45;100.00;93856.78;5072373;28;20044;-80
2022/02/12 02:08:05;;;;;;;22.02;12.02;;;;;;;-0.42;100.00;93859.03;5072631;28;20044;-80
2022/02/12 02:10:33;;;;;;;35.40;19.08;;;;;;;-0.53;100.00;93857.41;5072458;28;20067;-80
2022/02/12 02:12:59;;;;;;;33.45;18.15;;;;;;;-0.56;100.00;93858.44;5072375;28;20480;-80
2022/02/12 02:15:26;;;;;;;38.30;19.27;;;;;;;-0.97;100.00;93802.84;5072515;28;20040;-81
2022/02/12 02:17:53;;;;;;;29.73;15.32;;;;;;;-0.80;100.00;93825.91;5072127;28;20041;-81
2022/02/12 02:20:20;;;;;;;26.73;13.68;;;;;;;-0.72;100.00;93832.84;5072124;28;20041;-81
2022/02/12 02:22:53;;;;;;;25.17;13.70;;;;;;;-0.56;100.00;93866.00;5071810;28;20040;-81
2022/02/12 02:25:20;;;;;;;34.42;16.40;;;;;;;-0.59;100.00;93868.81;5072470;28;20051;-81
2022/02/12 02:27:47;;;;;;;35.65;16.33;;;;;;;-0.63;100.00;93879.25;5072043;28;20501;-81
2022/02/12 02:30:15;;;;;;;35.40;16.65;;;;;;;-0.82;100.00;93848.72;5072022;28;20041;-81
2022/02/12 02:32:43;;;;;;;32.58;16.25;;;;;;;-0.74;100.00;93865.78;5071808;28;20090;-81
2022/02/12 02:35:12;;;;;;;34.95;18.08;;;;;;;-0.69;100.00;93878.03;5071895;28;20047;-81
2022/02/12 02:37:39;;;;;;;35.80;17.85;;;;;;;-0.67;100.00;93878.69;5072078;28;20133;-81
2022/02/12 02:40:15;;;;;;;39.78;20.58;;;;;;;-0.68;100.00;93875.38;5071729;28;20122;-82
2022/02/12 02:42:43;;;;;;;39.08;21.02;;;;;;;-0.78;100.00;93866.97;5071683;28;20491;-81
2022/02/12 02:45:11;;;;;;;46.55;20.05;;;;;;;-0.80;100.00;93861.22;5072061;28;20042;-81
2022/02/12 02:47:42;;;;;;;46.05;21.85;;;;;;;-0.70;100.00;93879.75;5072021;28;20090;-81
2022/02/12 02:58:21;;;;;;;34.15;17.05;;;;;;;-0.74;100.00;93888.47;5071329;28;20052;-82
2022/02/12 03:00:48;;;;;;;35.38;16.88;;;;;;;-0.74;100.00;93893.53;5071410;28;20070;-82
2022/02/12 03:03:15;;;;;;;32.92;17.38;;;;;;;-0.86;100.00;93877.66;5071225;28;20053;-82
2022/02/12 03:05:42;;;;;;;43.55;18.73;;;;;;;-0.83;100.00;93890.03;5071196;28;20045;-81
2022/02/12 03:08:09;;;;;;;37.42;17.40;;;;;;;-0.83;100.00;93887.50;5071382;28;20040;-81
2022/02/12 03:10:37;;;;;;;54.47;26.33;;;;;;;-1.07;100.00;93870.06;5070885;28;20484;-81
2022/02/12 03:13:04;;;;;;;41.85;21.40;;;;;;;-0.89;100.00;93898.09;5071228;28;20044;-81
2022/02/12 03:15:49;;;;;;;47.63;21.48;;;;;;;-1.19;100.00;93873.56;5070993;28;20419;-81
2022/02/12 03:18:16;;;;;;;50.00;22.88;;;;;;;-1.15;100.00;93879.97;5070891;28;20044;-81
2022/02/12 03:20:43;;;;;;;48.92;23.60;;;;;;;-0.97;100.00;93901.22;5071071;28;21121;-81
2022/02/12 03:23:10;;;;;;;46.67;22.05;;;;;;;-1.01;100.00;93899.06;5070887;28;20105;-81
2022/02/12 03:25:39;;;;;;;55.53;25.08;;;;;;;-0.92;100.00;93907.63;5071103;28;20396;-81
2022/02/12 03:28:07;;;;;;;60.65;29.98;;;;;;;-1.03;100.00;93916.03;5070620;28;20043;-81
2022/02/12 03:30:37;;;;;;;70.80;35.00;;;;;;;-1.10;100.00;93911.47;5070662;28;20045;-81
2022/02/12 03:33:04;;;;;;;65.30;30.98;;;;;;;-1.14;100.00;93909.31;5070692;28;20048;-81
2022/02/12 03:35:31;;;;;;;53.20;26.02;;;;;;;-1.37;100.00;93881.66;5071191;28;20079;-81
2022/02/12 03:38:07;;;;;;;46.53;23.27;;;;;;;-1.12;100.00;93915.84;5070813;28;20048;-81
2022/02/12 03:40:35;;;;;;;46.30;22.83;;;;;;;-1.18;100.00;93908.75;5070814;28;20072;-83
2022/02/12 03:43:03;;;;;;;43.72;21.23;;;;;;;-1.02;100.00;93938.59;5070505;28;20057;-83
2022/02/12 03:45:31;;;;;;;37.88;19.80;;;;;;;-1.17;100.00;93912.09;5070662;28;20045;-82
2022/02/12 03:47:58;;;;;;;36.85;18.55;;;;;;;-1.10;100.00;93929.09;5070178;28;20048;-85
2022/02/12 03:50:27;;;;;;;38.58;17.85;;;;;;;-1.10;100.00;93936.66;5070383;28;20361;-85
2022/02/12 03:52:54;;;;;;;45.60;23.63;;;;;;;-1.21;100.00;93922.41;5070234;28;20547;-84
2022/02/12 03:55:21;;;;;;;45.03;20.58;;;;;;;-1.76;100.00;93837.56;5070256;28;20056;-83
2022/02/12 03:57:48;;;;;;;33.58;17.05;;;;;;;-1.14;100.00;93939.56;5070433;28;20048;-82
2022/02/12 04:00:17;;;;;;;33.53;17.85;;;;;;;-1.06;100.00;93939.78;5070282;28;20062;-82
2022/02/12 04:02:45;;;;;;;37.78;19.00;;;;;;;-1.27;100.00;93906.94;5069772;28;20109;-83
2022/02/12 04:05:14;;;;;;;35.10;18.60;;;;;;;-1.21;100.00;93924.09;5069822;28;20080;-83
2022/02/12 04:07:42;;;;;;;42.30;20.90;;;;;;;-1.08;100.00;93951.69;5070150;28;20049;-82
2022/02/12 04:10:11;;;;;;;43.92;21.27;;;;;;;-1.12;100.00;93948.59;5070163;28;20120;-81
2022/02/12 04:12:38;;;;;;;41.17;20.50;;;;;;;-1.36;100.00;93929.44;5069838;28;20484;-82
2022/02/12 04:15:07;;;;;;;38.50;19.60;;;;;;;-1.36;100.00;93928.63;5069555;28;20090;-82
2022/02/12 04:17:35;;;;;;;38.83;19.48;;;;;;;-1.21;100.00;93932.47;5069760;28;20442;-83
2022/02/12 04:20:03;;;;;;;40.90;19.35;;;;;;;-1.06;100.00;93969.22;5069873;28;20072;-83
2022/02/12 04:22:32;;;;;;;42.22;19.15;;;;;;;-1.05;100.00;93970.81;5069584;28;20053;-82
2022/02/12 04:24:59;;;;;;;37.22;18.60;;;;;;;-1.10;100.00;93977.00;5069438;28;20063;-82
2022/02/12 04:27:26;;;;;;;46.05;20.58;;;;;;;-1.39;100.00;93937.22;5070055;28;20064;-82
2022/02/12 04:29:53;;;;;;;47.92;22.00;;;;;;;-1.46;100.00;93932.75;5069900;28;20048;-83
2022/02/12 04:32:21;;;;;;;51.72;26.85;;;;;;;-1.23;100.00;93973.84;5069906;28;20507;-83
2022/02/12 04:34:50;;;;;;;53.67;26.35;;;;;;;-1.26;100.00;93979.94;5069314;28;20412;-83
2022/02/12 04:37:16;;;;;;;48.95;23.80;;;;;;;-1.15;100.00;94001.78;5069945;28;20052;-84
2022/02/12 04:39:44;;;;;;;55.90;27.08;;;;;;;-1.08;100.00;94007.16;5069532;28;20056;-82
2022/02/12 04:42:11;;;;;;;47.67;25.05;;;;;;;-1.13;100.00;94012.56;5069547;28;20086;-82
2022/02/12 04:44:39;;;;;;;48.55;23.70;;;;;;;-1.16;100.00;94009.47;5069754;28;20041;-82
2022/02/12 04:47:06;;;;;;;41.65;23.15;;;;;;;-1.20;100.00;93996.31;5069515;28;20484;-84
2022/02/12 04:49:34;;;;;;;46.22;22.38;;;;;;;-1.20;100.00;94006.41;5069527;28;20055;-83
2022/02/12 04:52:02;;;;;;;51.28;23.67;;;;;;;-1.05;100.00;94026.28;5069393;28;20051;-83
2022/02/12 04:54:29;;;;;;;39.28;19.25;;;;;;;-1.32;100.00;94000.56;5069296;28;20044;-82
2022/02/12 04:56:56;;;;;;;46.78;20.08;;;;;;;-1.12;100.00;94041.91;5069614;28;20047;-83
2022/02/12 04:59:23;;;;;;;42.70;20.15;;;;;;;-1.21;100.00;94035.84;5069361;28;20048;-83
2022/02/12 05:01:50;;;;;;;51.97;26.00;;;;;;;-1.29;100.00;94023.00;5069235;28;20504;-83
2022/02/12 05:04:18;;;;;;;42.15;21.33;;;;;;;-1.29;100.00;94023.00;5069356;28;20123;-83
2022/02/12 05:06:45;;;;;;;42.35;20.40;;;;;;;-1.18;100.00;94027.25;5069112;28;20047;-83
2022/02/12 05:09:14;;;;;;;43.78;19.83;;;;;;;-0.94;100.00;94056.53;5069478;28;20048;-83
2022/02/12 05:11:41;;;;;;;40.67;20.13;;;;;;;-0.83;100.00;94060.78;5069321;28;20137;-83
2022/02/12 05:14:08;;;;;;;47.88;23.02;;;;;;;-0.84;100.00;94049.06;5069060;28;20381;-85
2022/02/12 05:16:35;;;;;;;52.67;27.23;;;;;;;-0.76;100.00;94056.84;5062949;28;20497;-85
2022/02/12 05:19:03;;;;;;;58.25;28.65;;;;;;;-0.64;100.00;94072.75;5059000;28;20145;-84
2022/02/12 05:21:30;;;;;;;59.97;34.03;;;;;;;-0.63;100.00;94074.34;5060060;28;20427;-85
2022/02/12 05:23:57;;;;;;;55.50;33.17;;;;;;;-1.13;100.00;93987.34;5051963;28;20064;-85
2022/02/12 05:26:25;;;;;;;54.47;31.33;;;;;;;-0.40;100.00;94049.03;5059911;28;20480;-84
2022/02/12 05:28:52;;;;;;;52.95;31.80;;;;;;;-0.30;100.00;94027.19;5068497;28;20057;-84
2022/02/12 05:31:19;;;;;;;44.20;29.88;;;;;;;0.22;100.00;94035.72;5063271;28;20052;-84
2022/02/12 05:33:46;;;;;;;50.70;30.80;;;;;;;0.73;100.00;94088.88;5058706;28;20147;-84
2022/02/12 05:36:13;;;;;;;43.67;29.65;;;;;;;0.74;100.00;94078.63;5073081;28;20494;-83
2022/02/12 05:38:41;;;;;;;51.17;33.28;;;;;;;0.98;100.00;94100.31;5072772;28;20052;-83
2022/02/12 05:41:09;;;;;;;51.42;32.85;;;;;;;0.92;100.00;94096.56;5069690;28;20423;-83
2022/02/12 05:43:38;;;;;;;48.47;32.08;;;;;;;0.75;100.00;94072.66;5062218;28;20044;-83
2022/02/12 05:46:05;;;;;;;50.75;32.15;;;;;;;1.04;100.00;94106.56;5072876;28;20045;-82
2022/02/12 05:48:32;;;;;;;53.33;34.65;;;;;;;1.01;100.00;94087.38;5072910;28;20048;-81
2022/02/12 05:50:59;;;;;;;48.42;31.70;;;;;;;1.31;100.00;94110.25;5073091;28;20037;-81
2022/02/12 05:53:26;;;;;;;51.97;34.30;;;;;;;1.37;100.00;94113.97;5073001;28;20041;-81
2022/02/12 05:55:53;;;;;;;48.13;32.25;;;;;;;1.44;100.00;94120.13;5073028;28;20056;-81
2022/02/12 05:58:20;;;;;;;52.22;33.33;;;;;;;1.41;100.00;94118.66;5072726;28;20041;-81
2022/02/12 06:00:50;;;;;;;49.72;34.33;;;;;;;1.33;100.00;94086.41;5054483;28;20036;-81
2022/02/12 06:03:17;;;;;;;48.08;33.17;;;;;;;1.57;100.00;94115.59;5052624;28;20045;-80
2022/02/12 06:05:45;;;;;;;48.35;33.10;;;;;;;1.58;100.00;94122.25;5052205;28;20052;-80
2022/02/12 06:08:12;;;;;;;50.35;34.53;;;;;;;1.67;100.00;94119.88;5057848;28;20101;-80
2022/02/12 06:10:38;;;;;;;56.38;35.78;;;;;;;1.57;100.00;94115.59;5052063;28;20094;-80
2022/02/12 06:13:05;;;;;;;65.90;42.00;;;;;;;1.64;100.00;94125.22;5052157;28;20041;-80
2022/02/12 06:15:35;;;;;;;119.78;60.33;;;;;;;1.62;100.00;94130.41;5052461;28;20068;-80
2022/02/12 06:18:04;;;;;;;113.63;58.03;;;;;;;1.42;100.00;94092.41;5052194;28;20049;-79
2022/02/12 06:20:32;;;;;;;88.53;48.00;;;;;;;1.64;100.00;94128.56;5052338;28;20441;-79
2022/02/12 06:22:59;;;;;;;73.65;44.55;;;;;;;1.71;100.00;94137.22;5052209;28;20060;-79
2022/02/12 06:25:26;;;;;;;125.50;64.82;;;;;;;1.73;100.00;94132.03;5051968;28;20544;-79
2022/02/12 06:27:54;;;;;;;90.53;51.53;;;;;;;1.75;100.00;94125.09;5057656;28;20040;-79
2022/02/12 06:30:21;;;;;;;175.98;88.85;;;;;;;1.81;100.00;94131.38;5072147;28;20049;-79
2022/02/12 06:32:48;;;;;;;148.73;79.78;;;;;;;1.79;100.00;94121.34;5071715;28;20094;-81
2022/02/12 06:35:16;;;;;;;129.73;75.93;;;;;;;1.71;100.00;94122.03;5071751;28;20476;-81
2022/02/12 06:37:43;;;;;;;81.97;50.28;;;;;;;1.81;100.00;94146.56;5071883;28;20041;-79
2022/02/12 06:40:13;;;;;;;46.95;32.55;;;;;;;1.76;100.00;94151.22;5071983;28;20090;-80
2022/02/12 06:42:40;;;;;;;48.97;33.03;;;;;;;1.76;100.00;94149.47;5069052;28;20050;-81
2022/02/12 06:45:08;;;;;;;51.67;37.50;;;;;;;1.77;100.00;94158.69;5068056;28;20055;-81
2022/02/12 06:47:34;;;;;;;47.75;32.85;;;;;;;1.58;100.00;94132.41;5070176;28;20048;-80
2022/02/12 06:50:02;;;;;;;49.45;32.05;;;;;;;1.66;100.00;94156.28;5071603;28;20052;-80
2022/02/12 06:52:30;;;;;;;46.90;31.75;;;;;;;1.63;100.00;94162.41;5071242;28;20041;-81
2022/02/12 06:54:57;;;;;;;49.03;31.80;;;;;;;1.61;100.00;94164.25;5071736;28;20135;-80
2022/02/12 06:57:24;;;;;;;45.45;32.00;;;;;;;1.60;100.00;94176.13;5071168;28;20054;-81
2022/02/12 06:59:51;;;;;;;50.15;31.50;;;;;;;1.57;100.00;94166.25;5071635;28;20045;-80
2022/02/12 07:02:18;;;;;;;48.22;30.58;;;;;;;1.63;100.00;94175.06;5071212;28;20040;-81
2022/02/12 07:04:45;;;;;;;42.47;30.73;;;;;;;1.65;100.00;94169.84;5070865;28;20090;-81
2022/02/12 07:07:12;;;;;;;42.90;30.25;;;;;;;1.62;100.00;94173.44;5071131;28;20036;-82
2022/02/12 07:09:41;;;;;;;43.95;30.95;;;;;;;1.20;100.00;94126.31;5071048;28;20055;-82
2022/02/12 07:12:08;;;;;;;42.60;29.92;;;;;;;1.62;100.00;94181.03;5071236;28;20067;-83
2022/02/12 07:14:35;;;;;;;45.20;30.85;;;;;;;1.60;100.00;94172.78;5071333;28;20051;-83
2022/02/12 07:17:04;;;;;;;44.50;30.70;;;;;;;1.65;100.00;94160.53;5070899;28;20047;-82
2022/02/12 07:19:32;;;;;;;41.78;28.95;;;;;;;1.81;100.00;94189.63;5069278;28;20037;-82
2022/02/12 07:21:59;;;;;;;42.22;29.35;;;;;;;1.63;100.00;94152.28;5050727;28;20510;-82
2022/02/12 07:24:26;;;;;;;41.08;28.08;;;;;;;1.87;100.00;94189.09;5050747;28;20049;-82
2022/02/12 07:26:54;;;;;;;41.20;28.42;;;;;;;1.86;100.00;94183.22;5050872;28;20045;-83
2022/02/12 07:29:21;;;;;;;39.55;26.13;;;;;;;1.81;100.00;94187.88;5050950;28;20045;-82
2022/02/12 07:31:48;;;;;;;39.65;26.92;;;;;;;1.96;100.00;94183.25;5050533;28;20048;-82
2022/02/12 07:34:16;;;;;;;38.83;27.33;;;;;;;1.79;100.00;94161.88;5050439;28;20041;-82
2022/02/12 07:36:43;;;;;;;36.70;26.08;;;;;;;1.96;100.00;94182.44;5050200;28;20071;-82
2022/02/12 07:39:10;;;;;;;36.85;24.83;;;;;;;1.89;100.00;94189.75;5050526;28;20037;-82
2022/02/12 07:41:37;;;;;;;38.22;25.05;;;;;;;1.93;100.00;94202.97;5050665;28;20056;-82
2022/02/12 07:44:06;;;;;;;33.05;23.02;;;;;;;1.87;100.00;94196.69;5050198;28;20049;-82
2022/02/12 07:46:32;;;;;;;34.17;21.45;;;;;;;1.93;100.00;94210.56;5050775;28;20049;-83
2022/02/12 07:48:59;;;;;;;31.40;20.75;;;;;;;1.97;100.00;94220.31;5050204;28;20495;-83
2022/02/12 07:51:27;;;;;;;28.42;19.98;;;;;;;1.87;100.00;94210.16;5050505;28;20059;-83
2022/02/12 07:53:54;;;;;;;31.52;20.60;;;;;;;1.60;100.00;94162.66;5050470;28;20131;-83
2022/02/12 07:56:21;;;;;;;30.48;20.13;;;;;;;1.93;100.00;94188.56;5049582;28;20044;-84
2022/02/12 07:58:48;;;;;;;32.88;22.40;;;;;;;2.28;100.00;94219.41;5050081;28;20404;-83
2022/02/12 08:01:16;;;;;;;31.58;20.23;;;;;;;1.80;100.00;94147.50;5050476;28;20054;-84
2022/02/12 08:03:44;;;;;;;23.23;16.25;;;;;;;2.15;100.00;94204.47;5050168;28;20045;-83
2022/02/12 08:08:52;;;;;;;21.73;16.02;;;;;;;2.25;100.00;94219.66;5049699;28;20048;-82
2022/02/12 08:11:26;;;;;;;20.58;14.90;;;;;;;2.25;100.00;94222.19;5050150;28;20045;-83
2022/02/12 08:13:53;;;;;;;30.13;18.83;;;;;;;2.33;100.00;94209.69;5050245;28;20063;-82
2022/02/12 08:16:22;;;;;;;28.30;18.33;;;;;;;2.61;100.00;94221.66;5049851;28;20481;-83
2022/02/12 08:18:49;;;;;;;23.27;15.02;;;;;;;2.41;100.00;94158.28;5049808;28;20056;-83
2022/02/12 08:21:16;;;;;;;21.42;14.90;;;;;;;2.71;100.00;94192.00;5065702;28;20041;-83
2022/02/12 08:23:43;;;;;;;22.13;15.93;;;;;;;3.15;100.00;94216.09;5069673;28;20422;-83
2022/02/12 08:26:10;;;;;;;19.52;14.00;;;;;;;3.10;100.00;94221.56;5069934;28;20079;-83
2022/02/12 08:28:37;;;;;;;18.92;13.35;;;;;;;3.23;100.00;94211.09;5069942;28;20087;-83
2022/02/12 08:31:04;;;;;;;18.27;11.82;;;;;;;3.32;100.00;94201.84;5069580;28;20515;-84
2022/02/12 08:33:33;;;;;;;15.98;11.63;;;;;;;2.90;100.00;94148.03;5063520;28;20041;-83
2022/02/12 08:35:59;;;;;;;13.90;10.32;;;;;;;3.33;100.00;94223.75;5049820;28;20040;-83
2022/02/12 08:38:26;;;;;;;13.68;10.48;;;;;;;3.50;100.00;94218.88;5049350;28;20049;-83
2022/02/12 08:40:53;;;;;;;11.80;8.00;;;;;;;3.31;100.00;94185.00;5049351;28;20107;-83
2022/02/12 08:43:20;;;;;;;11.70;7.93;;;;;;;3.55;100.00;94193.84;5049275;28;20480;-83
2022/02/12 08:45:47;;;;;;;9.98;6.78;;;;;;;3.59;100.00;94187.53;5049563;28;20414;-83
2022/02/12 08:48:14;;;;;;;9.73;6.03;;;;;;;3.86;100.00;94216.44;5054736;28;20055;-84
2022/02/12 08:50:43;;;;;;;9.20;6.45;;;;;;;3.93;100.00;94219.97;5054117;28;20068;-82
2022/02/12 08:53:10;;;;;;;9.25;6.40;;;;;;;3.49;100.00;94134.25;5049220;28;20044;-83
2022/02/12 08:55:37;;;;;;;9.82;6.13;;;;;;;4.06;100.00;94214.56;5049712;28;20088;-84
2022/02/12 08:58:04;;;;;;;9.88;5.80;;;;;;;4.03;100.00;94193.72;5049309;28;20079;-84
2022/02/12 09:00:35;;;;;;;9.38;5.65;;;;;;;3.77;100.00;94146.91;5049314;28;20048;-83
2022/02/12 09:03:02;;;;;;;8.27;4.95;;;;;;;4.26;100.00;94216.97;5049926;28;20072;-83
2022/02/12 09:05:29;;;;;;;6.28;4.90;;;;;;;4.12;99.61;94178.38;5049613;28;20052;-83
2022/02/12 09:07:57;;;;;;;6.40;4.13;;;;;;;4.61;100.00;94215.34;5049679;28;20052;-83
2022/02/12 09:10:24;;;;;;;7.80;4.80;;;;;;;4.53;100.00;94179.66;5049570;28;20045;-82
2022/02/12 09:12:51;;;;;;;6.90;4.57;;;;;;;4.74;97.39;94211.59;5049631;28;20056;-82
2022/02/12 09:15:18;;;;;;;7.80;4.80;;;;;;;4.36;99.01;94145.66;5049944;28;20048;-82
2022/02/12 09:17:44;;;;;;;6.88;3.95;;;;;;;5.00;96.62;94208.28;5049448;28;20045;-82
2022/02/12 09:20:12;;;;;;;6.93;4.50;;;;;;;5.03;100.00;94175.69;5055972;28;20040;-82
2022/02/12 09:22:39;;;;;;;7.95;3.95;;;;;;;5.32;94.26;94217.84;5069121;28;20051;-82
2022/02/12 09:25:08;;;;;;;6.80;3.58;;;;;;;5.36;92.87;94220.88;5068734;28;20049;-81
2022/02/12 09:27:35;;;;;;;7.75;5.13;;;;;;;5.53;92.13;94221.75;5069731;28;20041;-82
2022/02/12 09:30:04;;;;;;;11.10;5.70;;;;;;;5.45;92.72;94197.03;5068903;28;20064;-82
2022/02/12 09:32:31;;;;;;;6.82;3.50;;;;;;;5.51;87.04;94223.66;5069831;28;20055;-82
2022/02/12 09:34:58;;;;;;;8.23;4.43;;;;;;;5.14;87.71;94212.81;5068930;28;20205;-82
2022/02/12 09:37:25;;;;;;;7.80;4.53;;;;;;;5.22;88.93;94189.94;5069101;28;20036;-83
2022/02/12 09:39:52;;;;;;;7.95;5.05;;;;;;;5.58;90.92;94209.38;5069234;28;20049;-82
2022/02/12 09:42:21;;;;;;;7.15;4.75;;;;;;;5.71;86.95;94214.03;5066234;28;20503;-81
2022/02/12 09:44:48;;;;;;;7.45;5.00;;;;;;;5.60;86.07;94209.22;5066950;28;20044;-81
2022/02/12 09:47:41;;;;;;;7.75;3.85;;;;;;;5.49;84.76;94205.19;5069054;28;20052;-81
2022/02/12 09:50:08;;;;;;;7.50;3.35;;;;;;;5.57;85.65;94212.88;5069046;28;20072;-82
2022/02/12 09:52:36;;;;;;;7.13;4.15;;;;;;;5.51;87.25;94194.84;5069048;28;20629;-82
2022/02/12 09:55:04;;;;;;;6.85;3.67;;;;;;;5.58;84.51;94201.72;5068828;28;20048;-82
2022/02/12 09:57:32;;;;;;;8.50;3.75;;;;;;;5.79;85.28;94199.72;5068909;28;20044;-82
2022/02/12 10:00:01;;;;;;;12.20;6.63;;;;;;;5.89;83.62;94206.25;5068748;28;20051;-81
2022/02/12 10:02:28;;;;;;;5.30;3.28;;;;;;;5.80;81.94;94204.66;5068979;28;20040;-82
2022/02/12 10:05:25;;;;;;;5.35;3.33;;;;;;;5.83;81.71;94199.22;5068741;28;20052;-81
2022/02/12 10:08:08;;;;;;;11.00;5.78;;;;;;;5.77;83.39;94182.00;5068911;28;20044;-82
2022/02/12 10:10:37;;;;;;;9.20;3.55;;;;;;;5.77;83.77;94165.91;5068724;28;20123;-82
2022/02/12 10:13:12;;;;;;;6.13;4.10;;;;;;;5.96;83.67;94188.59;5068620;28;20119;-82
2022/02/12 10:15:40;;;;;;;5.90;3.92;;;;;;;5.41;84.80;94091.28;5068454;28;20045;-83
2022/02/12 10:18:08;;;;;;;11.40;6.80;;;;;;;6.14;82.92;94191.03;5068334;28;20052;-81
2022/02/12 10:20:36;;;;;;;4.90;3.55;;;;;;;6.07;83.40;94192.59;5071647;28;20047;-81
2022/02/12 10:23:14;;;;;;;5.05;3.80;;;;;;;6.11;83.96;94183.69;5071546;28;20045;-80
2022/02/12 10:25:43;;;;;;;8.52;4.43;;;;;;;6.12;82.83;94176.84;5071692;28;20052;-80
2022/02/12 10:28:14;;;;;;;6.75;4.30;;;;;;;6.34;83.04;94172.88;5072145;28;20051;-81
2022/02/12 10:30:44;;;;;;;6.55;3.90;;;;;;;6.51;82.09;94175.41;5071847;28;20051;-81
2022/02/12 10:33:11;;;;;;;7.05;3.92;;;;;;;6.25;80.38;94181.50;5072048;28;20041;-80
2022/02/12 10:35:40;;;;;;;7.80;4.10;;;;;;;6.09;81.21;94166.94;5072044;28;20075;-80
2022/02/12 10:38:10;;;;;;;7.32;5.25;;;;;;;6.21;82.53;94160.56;5071981;28;20406;-80
2022/02/12 10:40:38;;;;;;;7.20;3.92;;;;;;;6.26;81.58;94171.09;5071682;28;20041;-81
2022/02/12 10:43:05;;;;;;;8.05;4.60;;;;;;;6.36;82.56;94144.63;5071579;28;20045;-80
2022/02/12 10:45:35;;;;;;;6.22;4.18;;;;;;;6.24;81.25;94152.63;5071832;28;20040;-81
2022/02/12 10:48:03;;;;;;;7.07;4.18;;;;;;;6.25;80.87;94156.75;5071366;28;20059;-79
2022/02/12 10:50:31;;;;;;;7.32;4.10;;;;;;;6.05;80.05;94137.59;5071627;28;20503;-79
2022/02/12 10:53:00;;;;;;;7.07;5.18;;;;;;;6.44;81.02;94159.16;5071360;28;20397;-79
2022/02/12 10:55:37;;;;;;;5.25;3.80;;;;;;;6.34;78.86;94162.66;5071486;28;20067;-78
2022/02/12 10:58:06;;;;;;;5.88;3.60;;;;;;;6.23;78.03;94160.41;5064753;28;20048;-79
2022/02/12 11:00:37;;;;;;;6.63;4.00;;;;;;;6.15;76.84;94156.09;5051210;28;20041;-79
2022/02/12 11:03:09;;;;;;;3.75;2.97;;;;;;;6.15;77.14;94122.94;5051098;28;20128;-80
2022/02/12 11:05:38;;;;;;;5.45;3.78;;;;;;;6.40;77.76;94130.59;5051048;28;20045;-79
2022/02/12 11:08:07;;;;;;;5.90;3.55;;;;;;;6.31;75.55;94144.31;5051270;28;20091;-80
2022/02/12 11:10:34;;;;;;;8.48;3.90;;;;;;;6.34;74.99;94142.25;5051087;28;20476;-80
2022/02/12 11:13:02;;;;;;;9.27;4.78;;;;;;;6.52;73.16;94147.19;5050781;28;20053;-80
2022/02/12 11:15:30;;;;;;;6.30;4.38;;;;;;;6.16;73.49;94071.00;5051220;28;20041;-80
2022/02/12 11:18:00;;;;;;;5.65;3.42;;;;;;;6.68;74.37;94133.59;5050866;28;20048;-79
2022/02/12 11:20:28;;;;;;;9.15;4.38;;;;;;;6.66;73.69;94148.28;5059839;28;20041;-79
2022/02/12 11:23:27;;;;;;;7.13;3.78;;;;;;;6.52;72.15;94139.53;5071024;28;20044;-80
2022/02/12 11:25:55;;;;;;;6.47;4.03;;;;;;;6.63;73.51;94133.28;5071005;28;20136;-80
2022/02/12 11:28:28;;;;;;;5.05;3.22;;;;;;;6.68;71.00;94145.56;5070780;28;20046;-79
2022/02/12 11:31:17;;;;;;;12.55;5.63;;;;;;;6.72;69.34;94131.53;5070455;28;20040;-80
2022/02/12 11:34:12;;;;;;;5.20;3.28;;;;;;;6.98;70.38;94143.28;5062422;28;20048;-80